sensor_id;sensor_type;location;lat;lon;timestamp;pressure;altitude;pressure_sealevel;temperature;humidity
13476;BME280;6810;63.824;20.288;2022-12-18T00:01:31;101635.88;;;-7.69;77.28
13476;BME280;6810;63.824;20.288;2022-12-18T00:04:23;101730.72;;;-7.12;77.07
13476;BME280;6810;63.824;20.288;2022-12-18T00:07:10;101732.56;;;-7.09;77.03
13476;BME280;6810;63.824;20.288;2022-12-18T00:09:57;101730.00;;;-7.08;77.04
13476;BME280;6810;63.824;20.288;2022-12-18T00:12:44;101713.56;;;-7.08;76.89
13476;BME280;6810;63.824;20.288;2022-12-18T00:15:37;101710.13;;;-7.07;77.16
13476;BME280;6810;63.824;20.288;2022-12-18T00:18:24;101717.13;;;-7.05;76.74
13476;BME280;6810;63.824;20.288;2022-12-18T00:21:12;101571.63;;;-7.84;77.13
13476;BME280;6810;63.824;20.288;2022-12-18T00:23:59;101709.47;;;-7.02;77.20
13476;BME280;6810;63.824;20.288;2022-12-18T00:26:47;101697.44;;;-7.00;77.22
13476;BME280;6810;63.824;20.288;2022-12-18T00:29:34;101687.13;;;-6.98;76.88
13476;BME280;6810;63.824;20.288;2022-12-18T00:32:21;101689.72;;;-6.98;77.27
13476;BME280;6810;63.824;20.288;2022-12-18T00:35:08;101668.69;;;-7.07;77.22
13476;BME280;6810;63.824;20.288;2022-12-18T00:37:55;101689.78;;;-6.95;77.20
13476;BME280;6810;63.824;20.288;2022-12-18T00:40:43;101669.63;;;-7.05;76.87
13476;BME280;6810;63.824;20.288;2022-12-18T00:43:30;101693.28;;;-6.93;77.09
13476;BME280;6810;63.824;20.288;2022-12-18T00:46:17;101689.03;;;-6.91;76.95
13476;BME280;6810;63.824;20.288;2022-12-18T00:49:04;101689.91;;;-6.91;77.47
13476;BME280;6810;63.824;20.288;2022-12-18T00:51:54;101693.41;;;-6.89;76.72
13476;BME280;6810;63.824;20.288;2022-12-18T00:54:41;101682.19;;;-6.89;77.12
13476;BME280;6810;63.824;20.288;2022-12-18T00:57:32;101681.28;;;-6.90;76.95
13476;BME280;6810;63.824;20.288;2022-12-18T01:00:19;101689.09;;;-6.88;77.26
13476;BME280;6810;63.824;20.288;2022-12-18T01:02:54;101686.56;;;-6.87;77.20
13476;BME280;6810;63.824;20.288;2022-12-18T01:05:43;101569.13;;;-7.51;76.95
13476;BME280;6810;63.824;20.288;2022-12-18T01:08:30;101633.19;;;-7.13;77.31
13476;BME280;6810;63.824;20.288;2022-12-18T01:11:19;101679.75;;;-6.83;77.19
13476;BME280;6810;63.824;20.288;2022-12-18T01:14:06;101666.00;;;-6.81;77.17
13476;BME280;6810;63.824;20.288;2022-12-18T01:16:53;101674.69;;;-6.79;77.15
13476;BME280;6810;63.824;20.288;2022-12-18T01:19:40;101668.66;;;-6.78;76.64
13476;BME280;6810;63.824;20.288;2022-12-18T01:22:27;101662.63;;;-6.77;77.38
13476;BME280;6810;63.824;20.288;2022-12-18T01:25:14;101648.88;;;-6.76;77.32
13476;BME280;6810;63.824;20.288;2022-12-18T01:28:02;101651.50;;;-6.74;77.68
13476;BME280;6810;63.824;20.288;2022-12-18T01:30:48;101642.91;;;-6.72;77.17
13476;BME280;6810;63.824;20.288;2022-12-18T01:33:35;101650.69;;;-6.72;77.46
13476;BME280;6810;63.824;20.288;2022-12-18T01:36:25;101664.56;;;-6.70;77.54
13476;BME280;6810;63.824;20.288;2022-12-18T01:39:14;101682.72;;;-6.70;77.24
13476;BME280;6810;63.824;20.288;2022-12-18T01:42:20;101660.03;;;-6.77;77.12
13476;BME280;6810;63.824;20.288;2022-12-18T01:48:06;101683.72;;;-6.65;76.92
13476;BME280;6810;63.824;20.288;2022-12-18T01:50:54;101663.59;;;-6.73;77.45
13476;BME280;6810;63.824;20.288;2022-12-18T01:53:43;101663.88;;;-6.63;76.99
13476;BME280;6810;63.824;20.288;2022-12-18T01:56:30;101669.97;;;-6.61;77.18
13476;BME280;6810;63.824;20.288;2022-12-18T01:59:05;101663.09;;;-6.60;77.28
13476;BME280;6810;63.824;20.288;2022-12-18T02:01:35;101573.72;;;-7.08;76.82
13476;BME280;6810;63.824;20.288;2022-12-18T02:04:25;101638.97;;;-6.58;77.35
13476;BME280;6810;63.824;20.288;2022-12-18T02:09:37;101639.03;;;-6.55;77.30
13476;BME280;6810;63.824;20.288;2022-12-18T02:12:23;101646.00;;;-6.52;76.94
13476;BME280;6810;63.824;20.288;2022-12-18T02:14:55;101655.56;;;-6.51;77.22
13476;BME280;6810;63.824;20.288;2022-12-18T02:17:33;101654.63;;;-6.53;77.19
13476;BME280;6810;63.824;20.288;2022-12-18T02:20:14;101658.22;;;-6.48;77.45
13476;BME280;6810;63.824;20.288;2022-12-18T02:26:07;101643.59;;;-6.45;77.54
13476;BME280;6810;63.824;20.288;2022-12-18T02:28:46;101566.50;;;-6.87;77.41
13476;BME280;6810;63.824;20.288;2022-12-18T02:31:40;101625.34;;;-6.49;76.92
13476;BME280;6810;63.824;20.288;2022-12-18T02:34:31;101629.94;;;-6.39;77.70
13476;BME280;6810;63.824;20.288;2022-12-18T02:37:22;101636.00;;;-6.39;77.07
13476;BME280;6810;63.824;20.288;2022-12-18T02:40:11;101631.69;;;-6.37;77.67
13476;BME280;6810;63.824;20.288;2022-12-18T02:43:14;101620.56;;;-6.34;77.53
13476;BME280;6810;63.824;20.288;2022-12-18T03:04:42;101619.88;;;-6.26;77.41
13476;BME280;6810;63.824;20.288;2022-12-18T03:07:42;101622.50;;;-6.24;77.23
13476;BME280;6810;63.824;20.288;2022-12-18T03:10:39;101619.09;;;-6.22;77.55
13476;BME280;6810;63.824;20.288;2022-12-18T03:13:31;101610.53;;;-6.19;77.15
13476;BME280;6810;63.824;20.288;2022-12-18T03:16:26;101579.00;;;-6.37;77.45
13476;BME280;6810;63.824;20.288;2022-12-18T03:19:16;101609.75;;;-6.15;77.25
13476;BME280;6810;63.824;20.288;2022-12-18T03:22:07;101608.06;;;-6.13;77.62
13476;BME280;6810;63.824;20.288;2022-12-18T03:24:55;101612.44;;;-6.11;77.29
13476;BME280;6810;63.824;20.288;2022-12-18T03:27:50;101597.81;;;-6.09;77.12
13476;BME280;6810;63.824;20.288;2022-12-18T03:30:40;101548.63;;;-6.41;77.00
13476;BME280;6810;63.824;20.288;2022-12-18T03:33:34;101592.69;;;-6.06;77.28
13476;BME280;6810;63.824;20.288;2022-12-18T03:36:32;101580.63;;;-6.04;77.46
13476;BME280;6810;63.824;20.288;2022-12-18T03:39:21;101587.59;;;-6.01;77.37
13476;BME280;6810;63.824;20.288;2022-12-18T03:42:19;101576.38;;;-6.00;77.28
13476;BME280;6810;63.824;20.288;2022-12-18T03:45:18;101577.28;;;-5.98;77.27
13476;BME280;6810;63.824;20.288;2022-12-18T03:48:17;101564.28;;;-6.00;77.29
13476;BME280;6810;63.824;20.288;2022-12-18T03:51:15;101567.00;;;-5.94;77.22
13476;BME280;6810;63.824;20.288;2022-12-18T03:54:07;101567.03;;;-5.92;76.88
13476;BME280;6810;63.824;20.288;2022-12-18T03:57:16;101569.66;;;-5.91;77.67
13476;BME280;6810;63.824;20.288;2022-12-18T04:00:11;101561.06;;;-5.88;77.91
13476;BME280;6810;63.824;20.288;2022-12-18T04:03:05;101561.97;;;-5.86;77.34
13476;BME280;6810;63.824;20.288;2022-12-18T04:05:56;101558.56;;;-5.84;77.48
13476;BME280;6810;63.824;20.288;2022-12-18T04:08:45;101560.34;;;-5.81;77.55
13476;BME280;6810;63.824;20.288;2022-12-18T04:11:37;101533.28;;;-5.94;77.55
13476;BME280;6810;63.824;20.288;2022-12-18T04:14:24;101555.22;;;-5.77;77.26
13476;BME280;6810;63.824;20.288;2022-12-18T04:17:12;101538.78;;;-5.77;77.49
13476;BME280;6810;63.824;20.288;2022-12-18T04:20:00;101537.06;;;-5.77;77.58
13476;BME280;6810;63.824;20.288;2022-12-18T04:22:47;101522.28;;;-5.79;77.68
13476;BME280;6810;63.824;20.288;2022-12-18T04:25:35;101526.84;;;-5.69;77.65
13476;BME280;6810;63.824;20.288;2022-12-18T04:28:37;101473.56;;;-5.95;77.98
13476;BME280;6810;63.824;20.288;2022-12-18T04:31:24;101525.19;;;-5.66;77.67
13476;BME280;6810;63.824;20.288;2022-12-18T04:34:11;101429.00;;;-6.19;76.92
13476;BME280;6810;63.824;20.288;2022-12-18T04:36:59;101502.72;;;-5.62;77.24
13476;BME280;6810;63.824;20.288;2022-12-18T04:39:48;101476.63;;;-5.70;77.05
13476;BME280;6810;63.824;20.288;2022-12-18T04:42:40;101484.66;;;-5.58;77.81
13476;BME280;6810;63.824;20.288;2022-12-18T04:45:27;101471.69;;;-5.56;77.81
13476;BME280;6810;63.824;20.288;2022-12-18T04:48:14;101465.72;;;-5.54;77.57
13476;BME280;6810;63.824;20.288;2022-12-18T04:51:02;101462.28;;;-5.51;77.46
13476;BME280;6810;63.824;20.288;2022-12-18T04:53:53;101461.41;;;-5.50;77.25
13476;BME280;6810;63.824;20.288;2022-12-18T04:56:40;101454.53;;;-5.48;77.87
13476;BME280;6810;63.824;20.288;2022-12-18T04:59:27;101457.16;;;-5.47;77.79
13476;BME280;6810;63.824;20.288;2022-12-18T05:02:14;101458.06;;;-5.45;77.44
13476;BME280;6810;63.824;20.288;2022-12-18T05:05:01;101456.41;;;-5.41;77.54
13476;BME280;6810;63.824;20.288;2022-12-18T05:07:48;101333.28;;;-6.06;77.77
13476;BME280;6810;63.824;20.288;2022-12-18T05:10:36;101460.78;;;-5.39;77.28
13476;BME280;6810;63.824;20.288;2022-12-18T05:13:23;101459.09;;;-5.37;77.39
13476;BME280;6810;63.824;20.288;2022-12-18T05:16:11;101378.81;;;-5.74;77.72
13476;BME280;6810;63.824;20.288;2022-12-18T05:18:58;101440.97;;;-5.33;77.53
13476;BME280;6810;63.824;20.288;2022-12-18T05:21:45;101440.13;;;-5.32;77.86
13476;BME280;6810;63.824;20.288;2022-12-18T05:24:33;101434.97;;;-5.29;77.48
13476;BME280;6810;63.824;20.288;2022-12-18T05:27:20;101422.88;;;-5.29;77.32
13476;BME280;6810;63.824;20.288;2022-12-18T05:30:07;101434.13;;;-5.27;78.08
13476;BME280;6810;63.824;20.288;2022-12-18T05:32:54;101412.31;;;-5.38;77.84
13476;BME280;6810;63.824;20.288;2022-12-18T05:35:42;101393.91;;;-5.50;77.78
13476;BME280;6810;63.824;20.288;2022-12-18T05:38:31;101422.97;;;-5.23;77.57
13476;BME280;6810;63.824;20.288;2022-12-18T05:41:18;101382.78;;;-5.45;78.26
13476;BME280;6810;63.824;20.288;2022-12-18T05:44:07;101429.97;;;-5.17;77.48
13476;BME280;6810;63.824;20.288;2022-12-18T05:46:54;101429.09;;;-5.16;78.00
13476;BME280;6810;63.824;20.288;2022-12-18T05:49:41;101426.50;;;-5.16;77.98
13476;BME280;6810;63.824;20.288;2022-12-18T05:52:27;101427.41;;;-5.14;78.33
13476;BME280;6810;63.824;20.288;2022-12-18T05:55:14;101419.66;;;-5.13;77.92
13476;BME280;6810;63.824;20.288;2022-12-18T05:58:02;101349.81;;;-5.49;77.89
13476;BME280;6810;63.824;20.288;2022-12-18T06:00:49;101422.28;;;-5.10;77.90
13476;BME280;6810;63.824;20.288;2022-12-18T06:03:38;101417.09;;;-5.10;77.23
13476;BME280;6810;63.824;20.288;2022-12-18T06:06:27;101418.88;;;-5.09;78.41
13476;BME280;6810;63.824;20.288;2022-12-18T06:09:14;101411.94;;;-5.08;78.02
13476;BME280;6810;63.824;20.288;2022-12-18T06:12:01;101405.84;;;-5.12;78.18
13476;BME280;6810;63.824;20.288;2022-12-18T06:14:48;101403.28;;;-5.09;77.47
13476;BME280;6810;63.824;20.288;2022-12-18T06:17:36;101400.69;;;-5.09;78.26
13476;BME280;6810;63.824;20.288;2022-12-18T06:20:23;101394.59;;;-5.11;78.16
13476;BME280;6810;63.824;20.288;2022-12-18T06:23:10;101392.91;;;-5.07;78.02
13476;BME280;6810;63.824;20.288;2022-12-18T06:25:57;101390.28;;;-5.10;78.04
13476;BME280;6810;63.824;20.288;2022-12-18T06:28:50;101385.97;;;-5.07;78.13
13476;BME280;6810;63.824;20.288;2022-12-18T06:31:37;101395.53;;;-5.06;78.39
13476;BME280;6810;63.824;20.288;2022-12-18T06:34:24;101393.78;;;-5.05;77.60
13476;BME280;6810;63.824;20.288;2022-12-18T06:37:11;101386.00;;;-5.05;77.84
13476;BME280;6810;63.824;20.288;2022-12-18T06:39:58;101385.13;;;-5.06;78.10
13476;BME280;6810;63.824;20.288;2022-12-18T06:42:45;101379.00;;;-5.09;77.61
13476;BME280;6810;63.824;20.288;2022-12-18T06:45:32;101386.91;;;-5.03;77.72
13476;BME280;6810;63.824;20.288;2022-12-18T06:48:19;101382.59;;;-5.03;77.45
13476;BME280;6810;63.824;20.288;2022-12-18T06:51:06;101368.66;;;-5.06;77.78
13476;BME280;6810;63.824;20.288;2022-12-18T06:53:53;101374.78;;;-5.03;78.28
13476;BME280;6810;63.824;20.288;2022-12-18T06:56:40;101367.81;;;-5.04;77.33
13476;BME280;6810;63.824;20.288;2022-12-18T06:59:27;101362.66;;;-5.01;77.30
13476;BME280;6810;63.824;20.288;2022-12-18T07:02:15;101367.03;;;-5.00;78.36
13476;BME280;6810;63.824;20.288;2022-12-18T07:05:02;101366.16;;;-5.00;78.45
13476;BME280;6810;63.824;20.288;2022-12-18T07:07:49;101356.66;;;-4.98;77.32
13476;BME280;6810;63.824;20.288;2022-12-18T07:10:43;101372.25;;;-4.98;78.54
13476;BME280;6810;63.824;20.288;2022-12-18T07:13:31;101364.50;;;-4.97;77.67
13476;BME280;6810;63.824;20.288;2022-12-18T07:16:19;101374.00;;;-4.96;77.27
13476;BME280;6810;63.824;20.288;2022-12-18T07:19:07;101361.91;;;-4.95;77.53
13476;BME280;6810;63.824;20.288;2022-12-18T07:21:54;101342.84;;;-4.96;77.43
13476;BME280;6810;63.824;20.288;2022-12-18T07:24:41;101339.34;;;-4.98;77.60
13476;BME280;6810;63.824;20.288;2022-12-18T07:27:28;101318.41;;;-5.07;77.58
13476;BME280;6810;63.824;20.288;2022-12-18T07:30:16;101321.97;;;-5.02;77.59
13476;BME280;6810;63.824;20.288;2022-12-18T07:33:02;101323.75;;;-4.96;77.85
13476;BME280;6810;63.824;20.288;2022-12-18T07:35:50;101283.50;;;-5.25;78.35
13476;BME280;6810;63.824;20.288;2022-12-18T07:38:37;101329.00;;;-4.93;77.86
13476;BME280;6810;63.824;20.288;2022-12-18T07:41:24;101329.03;;;-4.92;78.14
13476;BME280;6810;63.824;20.288;2022-12-18T07:44:15;101326.47;;;-4.89;78.43
13476;BME280;6810;63.824;20.288;2022-12-18T07:47:02;101326.47;;;-4.87;77.47
13476;BME280;6810;63.824;20.288;2022-12-18T07:49:49;101300.34;;;-4.99;77.39
13476;BME280;6810;63.824;20.288;2022-12-18T07:52:36;101323.06;;;-4.85;78.17
13476;BME280;6810;63.824;20.288;2022-12-18T07:55:23;101310.94;;;-4.84;78.39
13476;BME280;6810;63.824;20.288;2022-12-18T07:58:30;101292.66;;;-4.90;78.33
13476;BME280;6810;63.824;20.288;2022-12-18T08:01:17;101306.66;;;-4.79;78.71
13476;BME280;6810;63.824;20.288;2022-12-18T08:04:04;101259.56;;;-5.05;77.55
13476;BME280;6810;63.824;20.288;2022-12-18T08:06:51;101304.09;;;-4.76;78.66
13476;BME280;6810;63.824;20.288;2022-12-18T08:09:38;101295.47;;;-4.75;78.14
13476;BME280;6810;63.824;20.288;2022-12-18T08:12:25;101284.22;;;-4.74;77.42
13476;BME280;6810;63.824;20.288;2022-12-18T08:15:12;101281.63;;;-4.73;77.31
13476;BME280;6810;63.824;20.288;2022-12-18T08:17:59;101267.66;;;-4.81;77.84
13476;BME280;6810;63.824;20.288;2022-12-18T08:20:46;101280.78;;;-4.70;78.42
13476;BME280;6810;63.824;20.288;2022-12-18T08:23:33;101213.66;;;-5.06;77.53
13476;BME280;6810;63.824;20.288;2022-12-18T08:26:20;101267.81;;;-4.67;78.18
13476;BME280;6810;63.824;20.288;2022-12-18T08:29:17;101262.63;;;-4.66;78.44
13476;BME280;6810;63.824;20.288;2022-12-18T08:32:04;101260.06;;;-4.63;77.51
13476;BME280;6810;63.824;20.288;2022-12-18T08:34:51;101132.00;;;-5.29;77.73
13476;BME280;6810;63.824;20.288;2022-12-18T08:37:39;101130.25;;;-5.28;77.70
13476;BME280;6810;63.824;20.288;2022-12-18T08:40:26;101200.06;;;-4.82;78.20
13476;BME280;6810;63.824;20.288;2022-12-18T08:43:13;101228.94;;;-4.55;78.08
13476;BME280;6810;63.824;20.288;2022-12-18T08:45:58;101233.34;;;-4.53;78.05
13476;BME280;6810;63.824;20.288;2022-12-18T08:48:46;101226.41;;;-4.51;77.79
13476;BME280;6810;63.824;20.288;2022-12-18T08:51:34;101228.19;;;-4.48;77.97
13476;BME280;6810;63.824;20.288;2022-12-18T08:54:21;101220.41;;;-4.47;78.83
13476;BME280;6810;63.824;20.288;2022-12-18T08:57:08;101203.88;;;-4.52;77.96
13476;BME280;6810;63.824;20.288;2022-12-18T08:59:55;101227.34;;;-4.43;78.01
13476;BME280;6810;63.824;20.288;2022-12-18T09:02:42;101220.44;;;-4.44;77.97
13476;BME280;6810;63.824;20.288;2022-12-18T09:05:30;101222.19;;;-4.38;78.23
13476;BME280;6810;63.824;20.288;2022-12-18T09:08:17;101217.00;;;-4.37;78.32
13476;BME280;6810;63.824;20.288;2022-12-18T09:11:12;101212.72;;;-4.33;78.90
13476;BME280;6810;63.824;20.288;2022-12-18T09:14:00;101182.28;;;-4.43;78.57
13476;BME280;6810;63.824;20.288;2022-12-18T09:16:47;101207.56;;;-4.29;78.43
13476;BME280;6810;63.824;20.288;2022-12-18T09:19:34;101204.97;;;-4.26;78.25
13476;BME280;6810;63.824;20.288;2022-12-18T09:22:22;101204.13;;;-4.25;78.24
13476;BME280;6810;63.824;20.288;2022-12-18T09:25:09;101205.03;;;-4.21;78.25
13476;BME280;6810;63.824;20.288;2022-12-18T09:27:56;101196.34;;;-4.19;78.67
13476;BME280;6810;63.824;20.288;2022-12-18T09:30:48;101198.13;;;-4.16;78.58
13476;BME280;6810;63.824;20.288;2022-12-18T09:33:35;101187.75;;;-4.13;78.13
13476;BME280;6810;63.824;20.288;2022-12-18T09:36:23;101185.16;;;-4.12;78.04
13476;BME280;6810;63.824;20.288;2022-12-18T09:38:50;101180.84;;;-4.10;78.92
13476;BME280;6810;63.824;20.288;2022-12-18T09:41:45;101180.00;;;-4.07;77.89
13476;BME280;6810;63.824;20.288;2022-12-18T09:44:32;101170.50;;;-4.04;78.54
13476;BME280;6810;63.824;20.288;2022-12-18T09:47:37;101171.34;;;-4.02;78.55
13476;BME280;6810;63.824;20.288;2022-12-18T09:50:32;101162.72;;;-3.99;78.26
13476;BME280;6810;63.824;20.288;2022-12-18T09:53:24;101159.25;;;-3.97;79.15
13476;BME280;6810;63.824;20.288;2022-12-18T09:56:18;101134.88;;;-4.08;78.83
13476;BME280;6810;63.824;20.288;2022-12-18T09:59:05;101155.81;;;-3.93;78.65
13476;BME280;6810;63.824;20.288;2022-12-18T10:01:59;101132.38;;;-3.94;79.11
13476;BME280;6810;63.824;20.288;2022-12-18T10:05:02;101115.84;;;-4.02;78.22
13476;BME280;6810;63.824;20.288;2022-12-18T10:07:55;101137.66;;;-3.85;78.37
13476;BME280;6810;63.824;20.288;2022-12-18T10:10:49;101126.38;;;-3.81;78.38
13476;BME280;6810;63.824;20.288;2022-12-18T10:13:43;101118.59;;;-3.80;79.21
13476;BME280;6810;63.824;20.288;2022-12-18T10:22:57;101113.41;;;-3.74;78.02
13476;BME280;6810;63.824;20.288;2022-12-18T10:28:19;101096.06;;;-3.72;78.27
13476;BME280;6810;63.824;20.288;2022-12-18T10:31:15;101094.34;;;-3.67;79.29
13476;BME280;6810;63.824;20.288;2022-12-18T10:34:03;101103.94;;;-3.64;79.01
13476;BME280;6810;63.824;20.288;2022-12-18T10:36:50;101095.25;;;-3.62;78.76
13476;BME280;6810;63.824;20.288;2022-12-18T10:39:37;101093.53;;;-3.60;78.90
13476;BME280;6810;63.824;20.288;2022-12-18T10:42:24;101087.44;;;-3.59;78.43
13476;BME280;6810;63.824;20.288;2022-12-18T10:45:14;101072.69;;;-3.63;79.03
13476;BME280;6810;63.824;20.288;2022-12-18T10:48:01;101079.63;;;-3.57;78.16
13476;BME280;6810;63.824;20.288;2022-12-18T10:50:50;101085.75;;;-3.50;78.43
13476;BME280;6810;63.824;20.288;2022-12-18T10:53:41;101066.63;;;-3.49;78.59
13476;BME280;6810;63.824;20.288;2022-12-18T10:56:31;101071.00;;;-3.47;78.97
13476;BME280;6810;63.824;20.288;2022-12-18T10:59:20;101071.88;;;-3.45;78.05
13476;BME280;6810;63.824;20.288;2022-12-18T11:02:36;101061.44;;;-3.46;79.48
13476;BME280;6810;63.824;20.288;2022-12-18T11:05:33;101071.03;;;-3.41;78.51
13476;BME280;6810;63.824;20.288;2022-12-18T11:08:21;101053.66;;;-3.39;78.12
13476;BME280;6810;63.824;20.288;2022-12-18T11:11:23;101064.09;;;-3.36;79.21
13476;BME280;6810;63.824;20.288;2022-12-18T11:14:17;101055.41;;;-3.35;78.13
13476;BME280;6810;63.824;20.288;2022-12-18T11:20:23;101047.63;;;-3.29;78.17
13476;BME280;6810;63.824;20.288;2022-12-18T11:23:13;101057.16;;;-3.26;79.17
13476;BME280;6810;63.824;20.288;2022-12-18T11:26:03;101032.81;;;-3.34;78.80
13476;BME280;6810;63.824;20.288;2022-12-18T11:28:52;101041.53;;;-3.22;79.25
13476;BME280;6810;63.824;20.288;2022-12-18T11:35:27;101043.31;;;-3.18;78.28
13476;BME280;6810;63.824;20.288;2022-12-18T11:41:33;101028.53;;;-3.13;78.26
13476;BME280;6810;63.824;20.288;2022-12-18T11:44:38;100875.56;;;-4.03;78.56
13476;BME280;6810;63.824;20.288;2022-12-18T11:47:37;101027.69;;;-3.09;78.44
13476;BME280;6810;63.824;20.288;2022-12-18T11:53:53;101024.22;;;-3.03;78.80
13476;BME280;6810;63.824;20.288;2022-12-18T11:56:47;100970.28;;;-3.36;78.65
13476;BME280;6810;63.824;20.288;2022-12-18T12:06:16;101015.50;;;-2.93;78.89
13476;BME280;6810;63.824;20.288;2022-12-18T12:12:27;101006.84;;;-2.89;78.59
13476;BME280;6810;63.824;20.288;2022-12-18T12:15:50;101011.19;;;-2.87;78.71
13476;BME280;6810;63.824;20.288;2022-12-18T12:21:41;100995.53;;;-2.82;79.80
13476;BME280;6810;63.824;20.288;2022-12-18T16:13:25;100912.56;;;-1.69;79.43
13476;BME280;6810;63.824;20.288;2022-12-18T16:15:52;100902.97;;;-1.67;80.25
13476;BME280;6810;63.824;20.288;2022-12-18T16:18:19;100905.59;;;-1.67;80.41
13476;BME280;6810;63.824;20.288;2022-12-18T16:20:46;100911.66;;;-1.68;79.59
13476;BME280;6810;63.824;20.288;2022-12-18T16:23:33;100921.25;;;-1.67;80.29
13476;BME280;6810;63.824;20.288;2022-12-18T16:26:20;100923.00;;;-1.67;80.40
13476;BME280;6810;63.824;20.288;2022-12-18T16:29:08;100934.34;;;-1.68;79.60
13476;BME280;6810;63.824;20.288;2022-12-18T16:32:00;100923.88;;;-1.68;80.68
13476;BME280;6810;63.824;20.288;2022-12-18T16:34:47;100926.50;;;-1.71;79.73
13476;BME280;6810;63.824;20.288;2022-12-18T16:37:35;100922.19;;;-1.79;79.51
13476;BME280;6810;63.824;20.288;2022-12-18T16:40:22;100936.97;;;-1.73;79.71
13476;BME280;6810;63.824;20.288;2022-12-18T16:43:09;100867.53;;;-2.13;79.65
13476;BME280;6810;63.824;20.288;2022-12-18T16:45:58;100930.88;;;-1.75;80.22
13476;BME280;6810;63.824;20.288;2022-12-18T16:48:45;100929.19;;;-1.81;80.23
13476;BME280;6810;63.824;20.288;2022-12-18T16:51:33;100932.63;;;-1.79;80.20
13476;BME280;6810;63.824;20.288;2022-12-18T16:54:20;100935.22;;;-1.77;80.36
13476;BME280;6810;63.824;20.288;2022-12-18T16:57:09;100936.13;;;-1.80;80.79
13476;BME280;6810;63.824;20.288;2022-12-18T16:59:58;100934.38;;;-1.77;79.99
13476;BME280;6810;63.824;20.288;2022-12-18T17:02:45;100930.91;;;-1.78;80.37
13476;BME280;6810;63.824;20.288;2022-12-18T17:05:33;100834.59;;;-2.41;80.47
13476;BME280;6810;63.824;20.288;2022-12-18T17:08:20;100935.25;;;-1.82;79.78
13476;BME280;6810;63.824;20.288;2022-12-18T17:11:07;100940.50;;;-1.88;80.09
13476;BME280;6810;63.824;20.288;2022-12-18T17:13:55;100931.81;;;-1.84;80.82
13476;BME280;6810;63.824;20.288;2022-12-18T17:16:42;100900.56;;;-2.08;80.18
13476;BME280;6810;63.824;20.288;2022-12-18T17:19:10;100901.44;;;-2.04;80.00
13476;BME280;6810;63.824;20.288;2022-12-18T17:21:44;100940.50;;;-1.85;80.10
13476;BME280;6810;63.824;20.288;2022-12-18T17:24:11;100933.56;;;-1.89;79.76
13476;BME280;6810;63.824;20.288;2022-12-18T17:27:02;100937.03;;;-1.87;79.87
13476;BME280;6810;63.824;20.288;2022-12-18T17:29:48;100939.63;;;-1.82;80.29
13476;BME280;6810;63.824;20.288;2022-12-18T17:32:16;100934.44;;;-1.88;79.83
13476;BME280;6810;63.824;20.288;2022-12-18T17:35:03;100785.19;;;-2.79;80.39
13476;BME280;6810;63.824;20.288;2022-12-18T17:37:50;100970.06;;;-1.78;79.81
13476;BME280;6810;63.824;20.288;2022-12-18T17:40:38;100931.03;;;-2.05;79.86
13476;BME280;6810;63.824;20.288;2022-12-18T17:43:25;100979.63;;;-1.77;80.01
13476;BME280;6810;63.824;20.288;2022-12-18T17:46:13;100980.50;;;-1.73;80.49
13476;BME280;6810;63.824;20.288;2022-12-18T17:49:01;100982.22;;;-1.73;80.65
13476;BME280;6810;63.824;20.288;2022-12-18T17:51:48;100996.16;;;-1.69;80.61
13476;BME280;6810;63.824;20.288;2022-12-18T17:54:36;100997.88;;;-1.68;80.77
13476;BME280;6810;63.824;20.288;2022-12-18T17:57:23;101002.22;;;-1.64;79.94
13476;BME280;6810;63.824;20.288;2022-12-18T18:00:10;101002.22;;;-1.62;79.74
13476;BME280;6810;63.824;20.288;2022-12-18T18:02:57;100994.38;;;-1.59;80.85
13476;BME280;6810;63.824;20.288;2022-12-18T18:05:44;100957.00;;;-1.78;79.94
13476;BME280;6810;63.824;20.288;2022-12-18T18:08:33;100990.84;;;-1.54;80.58
13476;BME280;6810;63.824;20.288;2022-12-18T18:11:22;100990.00;;;-1.53;80.34
13476;BME280;6810;63.824;20.288;2022-12-18T18:14:14;100996.06;;;-1.52;80.20
13476;BME280;6810;63.824;20.288;2022-12-18T18:17:01;101004.78;;;-1.50;79.85
13476;BME280;6810;63.824;20.288;2022-12-18T18:19:48;101009.13;;;-1.49;80.38
13476;BME280;6810;63.824;20.288;2022-12-18T18:22:35;101011.72;;;-1.48;80.07
13476;BME280;6810;63.824;20.288;2022-12-18T18:25:23;101020.44;;;-1.46;80.03
13476;BME280;6810;63.824;20.288;2022-12-18T18:28:10;101024.78;;;-1.45;80.54
13476;BME280;6810;63.824;20.288;2022-12-18T18:30:57;101000.44;;;-1.54;80.33
13476;BME280;6810;63.824;20.288;2022-12-18T18:33:44;101030.84;;;-1.41;80.17
13476;BME280;6810;63.824;20.288;2022-12-18T18:36:31;101029.97;;;-1.40;80.01
13476;BME280;6810;63.824;20.288;2022-12-18T18:39:18;101039.56;;;-1.38;80.38
13476;BME280;6810;63.824;20.288;2022-12-18T18:42:06;101039.56;;;-1.38;79.98
13476;BME280;6810;63.824;20.288;2022-12-18T18:44:52;101040.41;;;-1.39;80.05
13476;BME280;6810;63.824;20.288;2022-12-18T18:47:39;101002.25;;;-1.70;80.57
13476;BME280;6810;63.824;20.288;2022-12-18T18:50:26;101054.38;;;-1.38;80.10
13476;BME280;6810;63.824;20.288;2022-12-18T18:53:13;101062.22;;;-1.40;80.08
13476;BME280;6810;63.824;20.288;2022-12-18T18:56:00;101067.44;;;-1.40;80.23
13476;BME280;6810;63.824;20.288;2022-12-18T18:59:08;101071.78;;;-1.39;80.89
13476;BME280;6810;63.824;20.288;2022-12-18T19:01:58;101036.19;;;-1.59;80.48
13476;BME280;6810;63.824;20.288;2022-12-18T19:04:31;101049.22;;;-1.55;80.46
13476;BME280;6810;63.824;20.288;2022-12-18T19:06:57;101086.59;;;-1.35;80.47
13476;BME280;6810;63.824;20.288;2022-12-18T19:09:25;101092.66;;;-1.34;80.74
13476;BME280;6810;63.824;20.288;2022-12-18T19:11:52;101090.06;;;-1.33;80.81
13476;BME280;6810;63.824;20.288;2022-12-18T19:14:38;101090.91;;;-1.31;80.43
13476;BME280;6810;63.824;20.288;2022-12-18T19:17:05;101054.44;;;-1.50;80.48
13476;BME280;6810;63.824;20.288;2022-12-18T19:19:56;101030.13;;;-1.75;80.53
13476;BME280;6810;63.824;20.288;2022-12-18T19:22:43;101116.19;;;-1.28;81.06
13476;BME280;6810;63.824;20.288;2022-12-18T19:25:30;101071.84;;;-1.55;80.05
13476;BME280;6810;63.824;20.288;2022-12-18T19:28:37;101127.50;;;-1.26;80.31
13476;BME280;6810;63.824;20.288;2022-12-18T19:31:23;101135.34;;;-1.26;80.18